sensor_id;sensor_type;location;lat;lon;timestamp;pressure;altitude;pressure_sealevel;temperature;humidity
11041;BME280;5573;49.592;8.662;2022-11-20T00:01:40;99415.63;;;3.60;100.00
11041;BME280;5573;49.592;8.662;2022-11-20T00:04:28;99413.38;;;3.62;100.00
11041;BME280;5573;49.592;8.662;2022-11-20T00:07:16;99410.88;;;3.69;100.00
11041;BME280;5573;49.592;8.662;2022-11-20T00:10:05;99408.50;;;3.67;100.00
11041;BME280;5573;49.592;8.662;2022-11-20T00:12:53;99412.47;;;3.58;100.00
11041;BME280;5573;49.592;8.662;2022-11-20T00:15:41;99414.41;;;3.57;100.00
11041;BME280;5573;49.592;8.662;2022-11-20T00:18:30;99411.34;;;3.59;100.00
11041;BME280;5573;49.592;8.662;2022-11-20T00:21:21;99407.16;;;3.61;100.00
11041;BME280;5573;49.592;8.662;2022-11-20T00:24:09;99401.44;;;3.66;100.00
11041;BME280;5573;49.592;8.662;2022-11-20T00:26:57;99404.88;;;3.63;100.00
11041;BME280;5573;49.592;8.662;2022-11-20T00:29:45;99408.38;;;3.64;100.00
11041;BME280;5573;49.592;8.662;2022-11-20T00:32:33;99408.94;;;3.70;100.00
11041;BME280;5573;49.592;8.662;2022-11-20T00:35:23;99404.53;;;3.65;100.00
11041;BME280;5573;49.592;8.662;2022-11-20T00:38:11;99392.06;;;3.64;100.00
11041;BME280;5573;49.592;8.662;2022-11-20T00:41:00;99395.81;;;3.59;100.00
11041;BME280;5573;49.592;8.662;2022-11-20T00:43:49;99397.06;;;3.62;100.00
11041;BME280;5573;49.592;8.662;2022-11-20T00:46:37;99399.53;;;3.67;100.00
11041;BME280;5573;49.592;8.662;2022-11-20T00:49:25;99400.81;;;3.57;100.00
11041;BME280;5573;49.592;8.662;2022-11-20T00:52:14;99399.91;;;3.53;100.00
11041;BME280;5573;49.592;8.662;2022-11-20T00:55:02;99406.69;;;3.59;100.00
11041;BME280;5573;49.592;8.662;2022-11-20T00:57:51;99407.94;;;3.62;100.00
11041;BME280;5573;49.592;8.662;2022-11-20T01:00:38;99409.41;;;3.59;100.00
11041;BME280;5573;49.592;8.662;2022-11-20T01:03:26;99417.25;;;3.61;100.00
11041;BME280;5573;49.592;8.662;2022-11-20T01:06:16;99415.63;;;3.60;100.00
11041;BME280;5573;49.592;8.662;2022-11-20T01:09:09;99414.50;;;3.73;100.00
11041;BME280;5573;49.592;8.662;2022-11-20T01:11:58;99419.66;;;3.78;100.00
11041;BME280;5573;49.592;8.662;2022-11-20T01:14:47;99418.59;;;3.67;100.00
11041;BME280;5573;49.592;8.662;2022-11-20T01:17:35;99417.78;;;3.66;100.00
11041;BME280;5573;49.592;8.662;2022-11-20T01:20:22;99411.53;;;3.66;100.00
11041;BME280;5573;49.592;8.662;2022-11-20T01:23:10;99419.97;;;3.61;100.00
11041;BME280;5573;49.592;8.662;2022-11-20T01:26:02;99416.22;;;3.53;100.00
11041;BME280;5573;49.592;8.662;2022-11-20T01:28:51;99406.59;;;3.56;100.00
11041;BME280;5573;49.592;8.662;2022-11-20T01:31:39;99403.34;;;3.50;100.00
11041;BME280;5573;49.592;8.662;2022-11-20T01:34:27;99420.13;;;3.40;100.00
11041;BME280;5573;49.592;8.662;2022-11-20T01:37:15;99420.00;;;3.36;100.00
11041;BME280;5573;49.592;8.662;2022-11-20T01:40:04;99406.59;;;3.43;100.00
11041;BME280;5573;49.592;8.662;2022-11-20T01:43:02;99394.38;;;3.50;100.00
11041;BME280;5573;49.592;8.662;2022-11-20T01:46:15;99394.28;;;3.46;100.00
11041;BME280;5573;49.592;8.662;2022-11-20T01:49:05;99390.53;;;3.51;100.00
11041;BME280;5573;49.592;8.662;2022-11-20T01:51:58;99378.94;;;3.54;100.00
11041;BME280;5573;49.592;8.662;2022-11-20T01:54:51;99392.00;;;3.48;100.00
11041;BME280;5573;49.592;8.662;2022-11-20T01:57:40;99393.00;;;3.56;100.00
11041;BME280;5573;49.592;8.662;2022-11-20T02:00:30;99389.63;;;3.46;100.00
11041;BME280;5573;49.592;8.662;2022-11-20T02:03:19;99378.03;;;3.50;100.00
11041;BME280;5573;49.592;8.662;2022-11-20T02:06:12;99316.09;;;3.02;100.00
11041;BME280;5573;49.592;8.662;2022-11-20T02:09:02;99377.38;;;3.53;100.00
11041;BME280;5573;49.592;8.662;2022-11-20T02:11:50;99376.59;;;3.52;100.00
11041;BME280;5573;49.592;8.662;2022-11-20T02:14:39;99387.31;;;3.61;100.00
11041;BME280;5573;49.592;8.662;2022-11-20T02:17:27;99378.13;;;3.65;100.00
11041;BME280;5573;49.592;8.662;2022-11-20T02:20:15;99391.13;;;3.72;100.00
11041;BME280;5573;49.592;8.662;2022-11-20T02:23:09;99390.00;;;3.73;100.00
11041;BME280;5573;49.592;8.662;2022-11-20T02:26:02;99384.47;;;3.70;100.00
11041;BME280;5573;49.592;8.662;2022-11-20T02:28:52;99386.63;;;3.64;100.00
11041;BME280;5573;49.592;8.662;2022-11-20T02:31:41;99389.81;;;3.54;100.00
11041;BME280;5573;49.592;8.662;2022-11-20T02:34:30;99377.97;;;3.46;100.00
11041;BME280;5573;49.592;8.662;2022-11-20T02:37:19;99352.28;;;3.31;100.00
11041;BME280;5573;49.592;8.662;2022-11-20T02:40:08;99368.06;;;3.54;100.00
11041;BME280;5573;49.592;8.662;2022-11-20T02:42:58;99358.53;;;3.60;100.00
11041;BME280;5573;49.592;8.662;2022-11-20T02:45:46;99368.59;;;3.72;100.00
11041;BME280;5573;49.592;8.662;2022-11-20T02:48:34;99361.47;;;3.67;100.00
11041;BME280;5573;49.592;8.662;2022-11-20T02:51:22;99360.75;;;3.70;100.00
11041;BME280;5573;49.592;8.662;2022-11-20T02:54:10;99353.75;;;3.69;100.00
11041;BME280;5573;49.592;8.662;2022-11-20T02:56:58;99365.16;;;3.75;100.00
11041;BME280;5573;49.592;8.662;2022-11-20T02:59:47;99372.28;;;3.79;100.00
11041;BME280;5573;49.592;8.662;2022-11-20T03:02:35;99369.63;;;3.67;100.00
11041;BME280;5573;49.592;8.662;2022-11-20T03:05:23;99352.53;;;3.82;100.00
11041;BME280;5573;49.592;8.662;2022-11-20T03:08:11;99359.47;;;3.80;100.00
11041;BME280;5573;49.592;8.662;2022-11-20T03:11:02;99363.44;;;3.82;100.00
11041;BME280;5573;49.592;8.662;2022-11-20T03:13:50;99357.09;;;3.78;100.00
11041;BME280;5573;49.592;8.662;2022-11-20T03:16:40;99356.41;;;3.81;100.00
11041;BME280;5573;49.592;8.662;2022-11-20T03:19:28;99364.75;;;3.89;100.00
11041;BME280;5573;49.592;8.662;2022-11-20T03:22:16;99359.56;;;3.83;100.00
11041;BME280;5573;49.592;8.662;2022-11-20T03:25:04;99328.28;;;3.61;100.00
11041;BME280;5573;49.592;8.662;2022-11-20T03:27:53;99356.50;;;3.85;100.00
11041;BME280;5573;49.592;8.662;2022-11-20T03:30:41;99360.66;;;3.95;100.00
11041;BME280;5573;49.592;8.662;2022-11-20T03:33:30;99348.22;;;3.81;100.00
11041;BME280;5573;49.592;8.662;2022-11-20T03:36:20;99356.25;;;3.90;100.00
11041;BME280;5573;49.592;8.662;2022-11-20T03:39:08;99365.53;;;3.89;100.00
11041;BME280;5573;49.592;8.662;2022-11-20T03:41:56;99367.16;;;3.90;100.00
11041;BME280;5573;49.592;8.662;2022-11-20T03:44:44;99364.94;;;3.96;100.00
11041;BME280;5573;49.592;8.662;2022-11-20T03:47:32;99370.03;;;3.97;100.00
11041;BME280;5573;49.592;8.662;2022-11-20T03:50:22;99364.25;;;3.99;100.00
11041;BME280;5573;49.592;8.662;2022-11-20T03:53:10;99364.06;;;3.92;100.00
11041;BME280;5573;49.592;8.662;2022-11-20T03:55:58;99366.53;;;3.97;100.00
11041;BME280;5573;49.592;8.662;2022-11-20T03:58:46;99367.16;;;4.06;100.00
11041;BME280;5573;49.592;8.662;2022-11-20T04:01:35;99365.59;;;4.05;100.00
11041;BME280;5573;49.592;8.662;2022-11-20T04:04:24;99371.22;;;4.12;100.00
11041;BME280;5573;49.592;8.662;2022-11-20T04:07:13;99366.03;;;4.07;100.00
11041;BME280;5573;49.592;8.662;2022-11-20T04:10:02;99356.38;;;4.10;100.00
11041;BME280;5573;49.592;8.662;2022-11-20T04:12:50;99356.19;;;4.02;100.00
11041;BME280;5573;49.592;8.662;2022-11-20T04:15:38;99357.38;;;3.89;100.00
11041;BME280;5573;49.592;8.662;2022-11-20T04:18:26;99358.16;;;3.90;100.00
11041;BME280;5573;49.592;8.662;2022-11-20T04:21:14;99361.09;;;3.97;100.00
11041;BME280;5573;49.592;8.662;2022-11-20T04:24:04;99359.34;;;4.04;100.00
11041;BME280;5573;49.592;8.662;2022-11-20T04:26:52;99356.53;;;4.01;100.00
11041;BME280;5573;49.592;8.662;2022-11-20T04:29:40;99352.78;;;4.05;100.00
11041;BME280;5573;49.592;8.662;2022-11-20T04:32:27;99339.72;;;4.11;100.00
11041;BME280;5573;49.592;8.662;2022-11-20T04:35:15;99318.69;;;3.96;100.00
11041;BME280;5573;49.592;8.662;2022-11-20T04:38:04;99339.94;;;4.06;100.00
11041;BME280;5573;49.592;8.662;2022-11-20T04:40:57;99338.00;;;4.06;100.00
11041;BME280;5573;49.592;8.662;2022-11-20T04:43:46;99342.94;;;4.01;100.00
11041;BME280;5573;49.592;8.662;2022-11-20T04:46:38;99335.84;;;4.12;100.00
11041;BME280;5573;49.592;8.662;2022-11-20T04:49:26;99340.56;;;4.15;100.00
11041;BME280;5573;49.592;8.662;2022-11-20T04:52:14;99344.53;;;4.18;100.00
11041;BME280;5573;49.592;8.662;2022-11-20T04:55:02;99336.16;;;4.11;100.00
11041;BME280;5573;49.592;8.662;2022-11-20T04:57:52;99338.28;;;4.17;100.00
11041;BME280;5573;49.592;8.662;2022-11-20T05:00:40;99343.72;;;4.17;100.00
11041;BME280;5573;49.592;8.662;2022-11-20T05:03:28;99337.84;;;4.15;100.00
11041;BME280;5573;49.592;8.662;2022-11-20T05:06:17;99327.06;;;4.19;100.00
11041;BME280;5573;49.592;8.662;2022-11-20T05:09:06;99330.13;;;4.17;100.00
11041;BME280;5573;49.592;8.662;2022-11-20T05:11:54;99330.22;;;4.21;100.00
11041;BME280;5573;49.592;8.662;2022-11-20T05:14:43;99323.88;;;4.17;100.00
11041;BME280;5573;49.592;8.662;2022-11-20T05:17:31;99326.94;;;4.15;100.00
11041;BME280;5573;49.592;8.662;2022-11-20T05:20:19;99322.22;;;4.12;100.00
11041;BME280;5573;49.592;8.662;2022-11-20T05:23:07;99320.38;;;4.16;100.00
11041;BME280;5573;49.592;8.662;2022-11-20T05:25:56;99313.09;;;4.20;100.00
11041;BME280;5573;49.592;8.662;2022-11-20T05:28:45;99325.03;;;4.32;100.00
11041;BME280;5573;49.592;8.662;2022-11-20T05:31:34;99306.41;;;4.34;100.00
11041;BME280;5573;49.592;8.662;2022-11-20T05:34:23;99317.50;;;4.41;100.00
11041;BME280;5573;49.592;8.662;2022-11-20T05:37:11;99310.97;;;4.30;100.00
11041;BME280;5573;49.592;8.662;2022-11-20T05:39:59;99309.75;;;4.43;100.00
11041;BME280;5573;49.592;8.662;2022-11-20T05:42:47;99310.19;;;4.45;100.00
11041;BME280;5573;49.592;8.662;2022-11-20T05:45:35;99312.31;;;4.52;100.00
11041;BME280;5573;49.592;8.662;2022-11-20T05:48:24;99304.91;;;4.52;100.00
11041;BME280;5573;49.592;8.662;2022-11-20T05:51:15;99305.06;;;4.59;100.00
11041;BME280;5573;49.592;8.662;2022-11-20T05:54:03;99307.72;;;4.56;100.00
11041;BME280;5573;49.592;8.662;2022-11-20T05:56:51;99309.63;;;4.55;100.00
11041;BME280;5573;49.592;8.662;2022-11-20T05:59:39;99316.25;;;4.54;100.00
11041;BME280;5573;49.592;8.662;2022-11-20T06:02:28;99319.66;;;4.67;100.00
11041;BME280;5573;49.592;8.662;2022-11-20T06:05:17;99302.53;;;4.66;100.00
11041;BME280;5573;49.592;8.662;2022-11-20T06:08:05;99305.69;;;4.68;100.00
11041;BME280;5573;49.592;8.662;2022-11-20T06:10:53;99304.53;;;4.69;100.00
11041;BME280;5573;49.592;8.662;2022-11-20T06:13:41;99285.91;;;4.72;100.00
11041;BME280;5573;49.592;8.662;2022-11-20T06:16:29;99298.16;;;4.62;100.00
11041;BME280;5573;49.592;8.662;2022-11-20T06:19:17;99310.16;;;4.61;100.00
11041;BME280;5573;49.592;8.662;2022-11-20T06:22:07;99303.22;;;4.63;100.00
11041;BME280;5573;49.592;8.662;2022-11-20T06:24:55;99307.97;;;4.66;100.00
11041;BME280;5573;49.592;8.662;2022-11-20T06:27:43;99299.06;;;4.69;100.00
11041;BME280;5573;49.592;8.662;2022-11-20T06:30:31;99304.19;;;4.71;100.00
11041;BME280;5573;49.592;8.662;2022-11-20T06:33:19;99298.81;;;4.75;100.00
11041;BME280;5573;49.592;8.662;2022-11-20T06:36:07;99293.44;;;4.78;100.00
11041;BME280;5573;49.592;8.662;2022-11-20T06:38:58;99300.75;;;4.74;100.00
11041;BME280;5573;49.592;8.662;2022-11-20T06:41:46;99298.97;;;4.82;100.00
11041;BME280;5573;49.592;8.662;2022-11-20T06:44:34;99297.47;;;4.84;100.00
11041;BME280;5573;49.592;8.662;2022-11-20T06:47:22;99298.19;;;4.81;100.00
11041;BME280;5573;49.592;8.662;2022-11-20T06:50:10;99298.53;;;4.80;100.00
11041;BME280;5573;49.592;8.662;2022-11-20T06:53:00;99326.25;;;4.66;100.00
11041;BME280;5573;49.592;8.662;2022-11-20T06:55:51;99325.72;;;4.60;100.00
11041;BME280;5573;49.592;8.662;2022-11-20T06:58:39;99318.94;;;4.70;100.00
11041;BME280;5573;49.592;8.662;2022-11-20T07:01:27;99328.69;;;4.71;100.00
11041;BME280;5573;49.592;8.662;2022-11-20T07:03:54;99333.72;;;4.69;100.00
11041;BME280;5573;49.592;8.662;2022-11-20T07:06:22;99324.38;;;4.70;100.00
11041;BME280;5573;49.592;8.662;2022-11-20T07:08:50;99293.78;;;4.41;100.00
11041;BME280;5573;49.592;8.662;2022-11-20T07:11:20;99324.22;;;4.63;100.00
11041;BME280;5573;49.592;8.662;2022-11-20T07:13:47;99312.47;;;4.59;100.00
11041;BME280;5573;49.592;8.662;2022-11-20T07:16:15;99318.53;;;4.68;100.00
11041;BME280;5573;49.592;8.662;2022-11-20T07:18:43;99322.81;;;4.69;100.00
11041;BME280;5573;49.592;8.662;2022-11-20T07:21:16;99325.19;;;4.71;100.00
11041;BME280;5573;49.592;8.662;2022-11-20T07:23:43;99326.25;;;4.66;100.00
11041;BME280;5573;49.592;8.662;2022-11-20T07:26:11;99326.25;;;4.66;100.00
11041;BME280;5573;49.592;8.662;2022-11-20T07:28:43;99324.03;;;4.72;100.00
11041;BME280;5573;49.592;8.662;2022-11-20T07:31:11;99323.16;;;4.83;100.00
11041;BME280;5573;49.592;8.662;2022-11-20T07:33:45;99327.09;;;4.86;100.00
11041;BME280;5573;49.592;8.662;2022-11-20T07:36:12;99317.06;;;4.90;100.00
11041;BME280;5573;49.592;8.662;2022-11-20T07:38:40;99325.69;;;4.92;100.00
11041;BME280;5573;49.592;8.662;2022-11-20T07:41:08;99321.88;;;4.97;100.00
11041;BME280;5573;49.592;8.662;2022-11-20T07:43:35;99327.00;;;4.98;100.00
11041;BME280;5573;49.592;8.662;2022-11-20T07:46:08;99320.53;;;5.06;100.00
11041;BME280;5573;49.592;8.662;2022-11-20T07:48:36;99322.50;;;5.06;100.00
11041;BME280;5573;49.592;8.662;2022-11-20T07:51:03;99316.59;;;5.04;100.00
11041;BME280;5573;49.592;8.662;2022-11-20T07:53:31;99316.59;;;5.04;100.00
11041;BME280;5573;49.592;8.662;2022-11-20T07:55:59;99293.66;;;4.89;100.00
11041;BME280;5573;49.592;8.662;2022-11-20T07:58:29;99318.25;;;5.08;100.00
11041;BME280;5573;49.592;8.662;2022-11-20T08:01:02;99318.91;;;5.02;100.00
11041;BME280;5573;49.592;8.662;2022-11-20T08:03:32;99321.31;;;5.07;100.00
11041;BME280;5573;49.592;8.662;2022-11-20T08:06:01;99292.09;;;4.88;100.00
11041;BME280;5573;49.592;8.662;2022-11-20T08:08:29;99329.94;;;5.09;100.00
11041;BME280;5573;49.592;8.662;2022-11-20T08:10:59;99331.03;;;5.04;100.00
11041;BME280;5573;49.592;8.662;2022-11-20T08:13:41;99340.97;;;4.97;100.00
11041;BME280;5573;49.592;8.662;2022-11-20T08:16:26;99340.41;;;5.07;100.00
11041;BME280;5573;49.592;8.662;2022-11-20T08:18:55;99356.00;;;5.06;100.00
11041;BME280;5573;49.592;8.662;2022-11-20T08:21:23;99362.41;;;4.98;100.00
11041;BME280;5573;49.592;8.662;2022-11-20T08:23:51;99372.88;;;4.96;100.00
11041;BME280;5573;49.592;8.662;2022-11-20T08:26:20;99365.84;;;4.95;100.00
11041;BME280;5573;49.592;8.662;2022-11-20T08:28:48;99359.69;;;4.98;100.00
11041;BME280;5573;49.592;8.662;2022-11-20T08:31:16;99368.66;;;4.99;100.00
11041;BME280;5573;49.592;8.662;2022-11-20T08:33:43;99376.16;;;4.86;100.00
11041;BME280;5573;49.592;8.662;2022-11-20T08:36:12;99369.19;;;4.88;100.00
11041;BME280;5573;49.592;8.662;2022-11-20T08:38:40;99372.66;;;4.85;100.00
11041;BME280;5573;49.592;8.662;2022-11-20T08:41:08;99374.50;;;4.81;100.00
11041;BME280;5573;49.592;8.662;2022-11-20T08:43:54;99376.78;;;4.79;100.00
11041;BME280;5573;49.592;8.662;2022-11-20T08:46:24;99382.91;;;4.76;100.00
11041;BME280;5573;49.592;8.662;2022-11-20T08:48:52;99386.91;;;4.79;100.00
11041;BME280;5573;49.592;8.662;2022-11-20T08:51:21;99385.56;;;4.73;100.00
11041;BME280;5573;49.592;8.662;2022-11-20T08:53:49;99391.53;;;4.78;100.00
11041;BME280;5573;49.592;8.662;2022-11-20T08:56:17;99384.06;;;4.75;100.00
11041;BME280;5573;49.592;8.662;2022-11-20T08:58:44;99390.50;;;4.83;100.00
11041;BME280;5573;49.592;8.662;2022-11-20T09:01:32;99388.38;;;4.76;100.00
11041;BME280;5573;49.592;8.662;2022-11-20T09:04:00;99382.91;;;4.76;100.00
11041;BME280;5573;49.592;8.662;2022-11-20T09:06:29;99395.06;;;4.79;100.00
11041;BME280;5573;49.592;8.662;2022-11-20T09:08:56;99394.94;;;4.91;100.00
11041;BME280;5573;49.592;8.662;2022-11-20T09:11:31;99390.13;;;5.00;100.00
11041;BME280;5573;49.592;8.662;2022-11-20T09:13:59;99391.44;;;5.06;100.00
11041;BME280;5573;49.592;8.662;2022-11-20T09:16:29;99396.09;;;5.06;100.00
11041;BME280;5573;49.592;8.662;2022-11-20T09:18:57;99407.00;;;4.90;100.00
11041;BME280;5573;49.592;8.662;2022-11-20T09:21:46;99401.66;;;4.94;100.00
11041;BME280;5573;49.592;8.662;2022-11-20T09:24:13;99397.13;;;5.01;100.00
11041;BME280;5573;49.592;8.662;2022-11-20T09:26:41;99408.13;;;5.05;100.00
11041;BME280;5573;49.592;8.662;2022-11-20T09:29:09;99398.44;;;5.07;100.00
11041;BME280;5573;49.592;8.662;2022-11-20T09:31:37;99397.66;;;5.07;100.00
11041;BME280;5573;49.592;8.662;2022-11-20T09:34:04;99396.09;;;5.06;100.00
11041;BME280;5573;49.592;8.662;2022-11-20T09:36:32;99402.28;;;5.22;100.00
11041;BME280;5573;49.592;8.662;2022-11-20T09:39:02;99400.91;;;5.13;100.00
11041;BME280;5573;49.592;8.662;2022-11-20T09:41:40;99385.34;;;4.97;100.00
11041;BME280;5573;49.592;8.662;2022-11-20T09:44:23;99407.94;;;5.14;100.00
11041;BME280;5573;49.592;8.662;2022-11-20T09:46:59;99404.78;;;5.12;100.00
11041;BME280;5573;49.592;8.662;2022-11-20T09:49:36;99418.22;;;5.20;100.00
11041;BME280;5573;49.592;8.662;2022-11-20T09:52:16;99406.53;;;5.20;100.00
11041;BME280;5573;49.592;8.662;2022-11-20T09:54:48;99401.22;;;5.27;100.00
11041;BME280;5573;49.592;8.662;2022-11-20T09:57:21;99403.09;;;5.23;100.00
11041;BME280;5573;49.592;8.662;2022-11-20T09:59:54;99403.44;;;5.21;100.00
11041;BME280;5573;49.592;8.662;2022-11-20T10:02:28;99409.56;;;5.34;100.00
11041;BME280;5573;49.592;8.662;2022-11-20T10:05:02;99399.72;;;5.29;100.00
11041;BME280;5573;49.592;8.662;2022-11-20T10:07:36;99404.56;;;5.20;100.00
11041;BME280;5573;49.592;8.662;2022-11-20T10:10:15;99407.31;;;5.20;100.00
11041;BME280;5573;49.592;8.662;2022-11-20T10:12:56;99407.53;;;5.31;100.00
11041;BME280;5573;49.592;8.662;2022-11-20T10:15:34;99416.44;;;5.28;100.00
11041;BME280;5573;49.592;8.662;2022-11-20T10:18:11;99421.03;;;5.24;100.00
11041;BME280;5573;49.592;8.662;2022-11-20T10:20:46;99411.44;;;5.30;100.00
11041;BME280;5573;49.592;8.662;2022-11-20T10:23:29;99389.75;;;5.37;100.00
11041;BME280;5573;49.592;8.662;2022-11-20T10:26:05;99380.22;;;5.47;100.00
11041;BME280;5573;49.592;8.662;2022-11-20T10:28:48;99402.91;;;5.32;100.00
11041;BME280;5573;49.592;8.662;2022-11-20T10:31:30;99398.88;;;5.25;100.00
11041;BME280;5573;49.592;8.662;2022-11-20T10:34:01;99384.69;;;5.36;100.00
11041;BME280;5573;49.592;8.662;2022-11-20T10:36:42;99375.91;;;5.46;100.00
11041;BME280;5573;49.592;8.662;2022-11-20T10:39:17;99382.19;;;5.46;100.00
11041;BME280;5573;49.592;8.662;2022-11-20T10:41:50;99383.03;;;5.50;100.00
11041;BME280;5573;49.592;8.662;2022-11-20T10:44:20;99380.03;;;5.56;100.00
11041;BME280;5573;49.592;8.662;2022-11-20T10:47:03;99378.03;;;5.53;100.00
11041;BME280;5573;49.592;8.662;2022-11-20T10:49:32;99372.03;;;5.66;100.00
11041;BME280;5573;49.592;8.662;2022-11-20T10:52:05;99371.41;;;5.73;100.00
11041;BME280;5573;49.592;8.662;2022-11-20T10:54:42;99372.56;;;5.72;100.00
11041;BME280;5573;49.592;8.662;2022-11-20T10:57:23;99368.81;;;5.80;100.00
11041;BME280;5573;49.592;8.662;2022-11-20T11:00:04;99369.47;;;5.93;100.00
11041;BME280;5573;49.592;8.662;2022-11-20T11:02:35;99325.06;;;5.77;100.00
11041;BME280;5573;49.592;8.662;2022-11-20T11:05:23;99369.19;;;5.98;100.00
11041;BME280;5573;49.592;8.662;2022-11-20T11:07:55;99364.22;;;6.04;100.00
11041;BME280;5573;49.592;8.662;2022-11-20T11:10:27;99366.00;;;6.16;100.00
11041;BME280;5573;49.592;8.662;2022-11-20T11:13:00;99372.69;;;6.18;100.00
11041;BME280;5573;49.592;8.662;2022-11-20T11:15:28;99366.47;;;6.21;100.00
11041;BME280;5573;49.592;8.662;2022-11-20T11:17:57;99368.66;;;6.12;100.00
11041;BME280;5573;49.592;8.662;2022-11-20T11:20:25;99363.28;;;6.16;100.00
11041;BME280;5573;49.592;8.662;2022-11-20T11:22:55;99359.06;;;5.99;100.00
11041;BME280;5573;49.592;8.662;2022-11-20T11:25:29;99352.81;;;5.98;100.00
11041;BME280;5573;49.592;8.662;2022-11-20T11:27:58;99341.03;;;6.17;100.00
11041;BME280;5573;49.592;8.662;2022-11-20T11:30:29;99347.78;;;6.23;100.00
11041;BME280;5573;49.592;8.662;2022-11-20T11:33:06;99347.06;;;6.26;100.00
11041;BME280;5573;49.592;8.662;2022-11-20T11:35:44;99344.22;;;6.19;100.00
11041;BME280;5573;49.592;8.662;2022-11-20T11:38:21;99331.22;;;6.13;100.00
11041;BME280;5573;49.592;8.662;2022-11-20T11:40:49;99336.00;;;6.19;100.00
11041;BME280;5573;49.592;8.662;2022-11-20T11:43:19;99327.53;;;6.24;100.00
11041;BME280;5573;49.592;8.662;2022-11-20T11:46:23;99333.53;;;6.34;100.00
11041;BME280;5573;49.592;8.662;2022-11-20T11:49:00;99342.25;;;6.43;100.00
11041;BME280;5573;49.592;8.662;2022-11-20T11:51:34;99330.63;;;6.46;100.00
11041;BME280;5573;49.592;8.662;2022-11-20T11:54:05;99323.94;;;6.43;100.00
11041;BME280;5573;49.592;8.662;2022-11-20T11:56:38;99325.75;;;6.36;100.00
11041;BME280;5573;49.592;8.662;2022-11-20T11:59:12;99327.03;;;6.42;100.00
11041;BME280;5573;49.592;8.662;2022-11-20T12:01:47;99325.25;;;6.53;100.00
11041;BME280;5573;49.592;8.662;2022-11-20T12:04:23;99320.84;;;6.45;100.00
11041;BME280;5573;49.592;8.662;2022-11-20T12:06:55;99313.50;;;6.26;100.00
11041;BME280;5573;49.592;8.662;2022-11-20T12:09:33;99312.72;;;6.25;100.00
11041;BME280;5573;49.592;8.662;2022-11-20T12:12:06;99313.31;;;6.38;100.00
11041;BME280;5573;49.592;8.662;2022-11-20T12:14:37;99311.31;;;6.58;100.00
11041;BME280;5573;49.592;8.662;2022-11-20T12:17:11;99290.34;;;6.43;100.00
11041;BME280;5573;49.592;8.662;2022-11-20T12:19:39;99325.00;;;6.62;100.00
11041;BME280;5573;49.592;8.662;2022-11-20T12:22:21;99315.38;;;6.45;100.00
11041;BME280;5573;49.592;8.662;2022-11-20T12:24:55;99308.94;;;6.57;100.00
11041;BME280;5573;49.592;8.662;2022-11-20T12:27:52;99319.84;;;6.57;100.00
11041;BME280;5573;49.592;8.662;2022-11-20T12:30:23;99313.06;;;6.24;100.00
11041;BME280;5573;49.592;8.662;2022-11-20T12:35:44;99314.41;;;6.34;100.00
11041;BME280;5573;49.592;8.662;2022-11-20T12:38:48;99319.38;;;6.28;100.00
11041;BME280;5573;49.592;8.662;2022-11-20T12:41:25;99315.00;;;6.23;100.00
11041;BME280;5573;49.592;8.662;2022-11-20T12:44:21;99315.34;;;6.18;100.00
11041;BME280;5573;49.592;8.662;2022-11-20T12:47:19;99305.38;;;6.06;100.00
11041;BME280;5573;49.592;8.662;2022-11-20T12:49:59;99268.44;;;5.93;100.00
11041;BME280;5573;49.592;8.662;2022-11-20T12:52:41;99301.09;;;6.32;100.00
11041;BME280;5573;49.592;8.662;2022-11-20T12:55:16;99305.78;;;6.31;100.00
11041;BME280;5573;49.592;8.662;2022-11-20T12:57:52;99294.59;;;6.40;100.00
11041;BME280;5573;49.592;8.662;2022-11-20T13:00:22;99296.72;;;6.50;100.00
11041;BME280;5573;49.592;8.662;2022-11-20T13:03:02;99294.09;;;6.58;100.00
11041;BME280;5573;49.592;8.662;2022-11-20T13:05:43;99283.28;;;6.65;100.00
11041;BME280;5573;49.592;8.662;2022-11-20T13:08:19;99279.88;;;6.71;100.00
11041;BME280;5573;49.592;8.662;2022-11-20T13:10:50;99282.59;;;6.71;100.00
11041;BME280;5573;49.592;8.662;2022-11-20T13:13:23;99281.53;;;6.80;100.00
11041;BME280;5573;49.592;8.662;2022-11-20T13:16:00;99276.56;;;6.85;100.00
11041;BME280;5573;49.592;8.662;2022-11-20T13:18:36;99264.50;;;6.90;100.00
11041;BME280;5573;49.592;8.662;2022-11-20T13:21:15;99237.59;;;6.65;100.00
11041;BME280;5573;49.592;8.662;2022-11-20T13:23:43;99265.22;;;6.87;100.00
11041;BME280;5573;49.592;8.662;2022-11-20T13:26:19;99258.34;;;6.97;100.00
11041;BME280;5573;49.592;8.662;2022-11-20T13:28:59;99257.59;;;7.00;100.00
11041;BME280;5573;49.592;8.662;2022-11-20T13:31:32;99259.66;;;7.06;100.00
11041;BME280;5573;49.592;8.662;2022-11-20T13:34:03;99248.78;;;7.13;100.00
11041;BME280;5573;49.592;8.662;2022-11-20T13:36:33;99250.81;;;7.20;100.00
11041;BME280;5573;49.592;8.662;2022-11-20T13:39:03;99241.06;;;7.23;100.00
11041;BME280;5573;49.592;8.662;2022-11-20T13:41:32;99238.81;;;7.28;100.00
11041;BME280;5573;49.592;8.662;2022-11-20T13:44:10;99242.00;;;7.34;100.00
11041;BME280;5573;49.592;8.662;2022-11-20T13:46:41;99237.38;;;7.42;100.00
11041;BME280;5573;49.592;8.662;2022-11-20T13:49:17;99240.09;;;7.38;100.00
11041;BME280;5573;49.592;8.662;2022-11-20T13:51:49;99238.50;;;7.37;100.00
11041;BME280;5573;49.592;8.662;2022-11-20T13:54:43;99228.03;;;7.43;100.00
11041;BME280;5573;49.592;8.662;2022-11-20T13:57:35;99208.09;;;7.42;100.00
11041;BME280;5573;49.592;8.662;2022-11-20T14:00:12;99230.66;;;7.73;100.00
11041;BME280;5573;49.592;8.662;2022-11-20T14:02:40;99233.91;;;7.82;100.00
11041;BME280;5573;49.592;8.662;2022-11-20T14:05:18;99229.16;;;7.79;100.00
11041;BME280;5573;49.592;8.662;2022-11-20T14:07:49;99228.72;;;7.73;100.00
11041;BME280;5573;49.592;8.662;2022-11-20T14:10:22;99229.94;;;7.76;100.00
11041;BME280;5573;49.592;8.662;2022-11-20T14:12:57;99226.38;;;7.72;100.00
11041;BME280;5573;49.592;8.662;2022-11-20T14:15:27;99219.84;;;7.87;100.00
11041;BME280;5573;49.592;8.662;2022-11-20T14:17:55;99217.38;;;7.75;100.00
11041;BME280;5573;49.592;8.662;2022-11-20T14:20:25;99211.06;;;7.67;100.00
11041;BME280;5573;49.592;8.662;2022-11-20T14:22:55;99211.06;;;7.67;100.00
11041;BME280;5573;49.592;8.662;2022-11-20T14:25:24;99212.28;;;7.70;100.00